createdAt,value
2022-11-16T00:02:15.829Z,8.77
2022-11-16T00:04:43.472Z,8.64
2022-11-16T00:07:10.938Z,8.73
2022-11-16T00:09:38.298Z,8.63
2022-11-16T00:12:09.699Z,8.73
2022-11-16T00:14:37.104Z,8.75
2022-11-16T00:17:05.086Z,8.67
2022-11-16T00:19:32.679Z,8.64
2022-11-16T00:22:00.176Z,8.71
2022-11-16T00:24:27.452Z,8.65
2022-11-16T00:26:56.235Z,8.57
2022-11-16T00:29:26.855Z,8.45
2022-11-16T00:31:54.892Z,8.34
2022-11-16T00:34:23.443Z,8.31
2022-11-16T00:36:51.000Z,8.27
2022-11-16T00:39:19.834Z,8.23
2022-11-16T00:41:48.046Z,8.22
2022-11-16T00:44:15.644Z,8.14
2022-11-16T00:46:43.248Z,8.12
2022-11-16T00:49:10.957Z,8.19
2022-11-16T00:51:38.686Z,8.09
2022-11-16T00:54:08.689Z,8.04
2022-11-16T00:56:37.935Z,7.89
2022-11-16T00:59:06.720Z,7.92
2022-11-16T01:01:34.405Z,7.90
2022-11-16T01:04:02.044Z,7.88
2022-11-16T01:06:29.403Z,7.88
2022-11-16T01:08:56.770Z,7.70
2022-11-16T01:11:42.771Z,7.61
2022-11-16T01:14:11.242Z,7.60
2022-11-16T01:16:39.091Z,7.46
2022-11-16T01:19:07.801Z,7.52
2022-11-16T01:21:35.518Z,7.41
2022-11-16T01:24:02.934Z,7.34
2022-11-16T01:26:30.270Z,7.20
2022-11-16T01:29:00.009Z,7.24
2022-11-16T01:31:31.134Z,7.21
2022-11-16T01:33:59.601Z,7.29
2022-11-16T01:36:29.558Z,7.21
2022-11-16T01:38:59.316Z,7.24
2022-11-16T01:41:30.816Z,7.22
2022-11-16T01:44:33.205Z,7.27
2022-11-16T01:47:14.999Z,7.32
2022-11-16T01:49:51.683Z,7.39
2022-11-16T01:52:31.323Z,7.25
2022-11-16T01:54:59.576Z,7.24
2022-11-16T01:57:38.124Z,7.08
2022-11-16T02:00:12.214Z,7.03
2022-11-16T02:02:48.472Z,7.17
2022-11-16T02:06:09.050Z,7.20
2022-11-16T02:09:47.128Z,7.08
2022-11-16T02:12:54.735Z,7.05
2022-11-16T02:15:46.453Z,6.98
2022-11-16T02:18:34.729Z,6.97
2022-11-16T02:21:26.549Z,7.08
2022-11-16T02:24:21.004Z,7.08
2022-11-16T02:27:11.111Z,7.08
2022-11-16T02:29:40.411Z,7.10
2022-11-16T02:32:27.556Z,7.22
2022-11-16T02:35:10.060Z,7.16
2022-11-16T02:37:45.660Z,7.08
2022-11-16T02:40:18.238Z,7.15
2022-11-16T02:43:15.577Z,7.30
2022-11-16T02:45:48.652Z,7.25
2022-11-16T02:48:22.826Z,7.12
2022-11-16T02:50:55.110Z,7.16
2022-11-16T02:53:24.513Z,7.18
2022-11-16T02:55:53.083Z,7.27
2022-11-16T02:58:26.045Z,7.42
2022-11-16T03:01:08.952Z,7.31
2022-11-16T03:03:46.638Z,7.40
2022-11-16T03:06:25.253Z,7.42
2022-11-16T03:09:27.272Z,7.43
2022-11-16T03:12:00.168Z,7.55
2022-11-16T03:14:50.575Z,7.60
2022-11-16T03:17:30.129Z,7.65
2022-11-16T03:20:07.700Z,7.66
2022-11-16T03:22:47.654Z,7.88
2022-11-16T03:25:19.655Z,7.75
2022-11-16T03:28:15.721Z,7.74
2022-11-16T03:30:52.873Z,7.75
2022-11-16T03:33:28.289Z,7.70
2022-11-16T03:36:20.854Z,7.82
2022-11-16T03:38:52.907Z,7.76
2022-11-16T03:41:24.480Z,7.88
2022-11-16T03:43:55.133Z,7.79
2022-11-16T03:46:22.620Z,7.74
2022-11-16T03:49:00.731Z,7.66
2022-11-16T03:51:32.417Z,7.62
2022-11-16T03:53:59.773Z,7.63
2022-11-16T03:56:27.985Z,7.86
2022-11-16T03:58:55.291Z,7.81
2022-11-16T04:01:22.713Z,7.88
2022-11-16T04:03:50.649Z,7.78
2022-11-16T04:06:38.688Z,7.84
2022-11-16T04:09:24.901Z,8.01
2022-11-16T04:12:10.762Z,8.05
2022-11-16T04:14:57.420Z,8.08
2022-11-16T04:17:46.352Z,8.11
2022-11-16T04:20:34.135Z,8.19
2022-11-16T04:23:33.983Z,7.99
2022-11-16T04:26:02.968Z,7.84
2022-11-16T04:28:32.757Z,7.66
2022-11-16T04:31:24.053Z,7.78
2022-11-16T04:34:21.361Z,7.86
2022-11-16T04:37:11.003Z,7.88
2022-11-16T04:39:39.834Z,7.80
2022-11-16T04:42:19.881Z,7.69
2022-11-16T04:45:09.219Z,7.60
2022-11-16T04:47:44.018Z,7.48
2022-11-16T04:50:11.750Z,7.54
2022-11-16T04:52:40.997Z,7.79
2022-11-16T04:55:12.436Z,7.80
2022-11-16T04:57:40.516Z,7.89
2022-11-16T05:00:09.722Z,8.02
2022-11-16T05:02:39.602Z,8.01
2022-11-16T05:05:07.605Z,7.90
2022-11-16T05:07:36.822Z,7.88
2022-11-16T05:10:14.833Z,7.84
2022-11-16T05:12:42.999Z,7.94
2022-11-16T05:15:11.207Z,8.01
2022-11-16T05:17:39.859Z,8.08
2022-11-16T05:20:31.787Z,8.16
2022-11-16T05:23:03.860Z,7.79
2022-11-16T05:25:36.917Z,7.68
2022-11-16T05:28:07.579Z,7.82
2022-11-16T05:30:39.120Z,7.84
2022-11-16T05:33:06.568Z,7.81
2022-11-16T05:35:38.413Z,7.90
2022-11-16T05:38:06.572Z,7.91
2022-11-16T05:40:39.002Z,7.84
2022-11-16T05:43:06.253Z,8.05
2022-11-16T05:45:38.931Z,7.94
2022-11-16T05:48:07.954Z,7.89
2022-11-16T05:50:39.816Z,7.91
2022-11-16T05:53:16.532Z,8.00
2022-11-16T05:55:43.834Z,8.05
2022-11-16T05:58:11.355Z,7.92
2022-11-16T06:00:38.606Z,8.01
2022-11-16T06:03:09.301Z,8.11
2022-11-16T06:05:40.501Z,8.18
2022-11-16T06:08:09.938Z,8.26
2022-11-16T06:10:37.257Z,8.26
2022-11-16T06:13:05.618Z,8.27
2022-11-16T06:15:38.620Z,8.26
2022-11-16T06:18:08.698Z,8.28
2022-11-16T06:20:38.684Z,8.27
2022-11-16T06:23:07.158Z,8.24
2022-11-16T06:25:38.148Z,8.26
2022-11-16T06:28:07.934Z,8.24
2022-11-16T06:30:38.226Z,8.28
2022-11-16T06:33:06.879Z,8.32
2022-11-16T06:35:34.318Z,8.33
2022-11-16T06:38:03.114Z,8.35
2022-11-16T06:40:30.543Z,8.32
2022-11-16T06:42:57.782Z,8.36
2022-11-16T06:45:26.750Z,8.31
2022-11-16T06:47:56.847Z,8.44
2022-11-16T06:50:24.313Z,8.44
2022-11-16T06:52:52.075Z,8.32
2022-11-16T06:55:19.523Z,8.24
2022-11-16T06:57:48.245Z,8.33
2022-11-16T07:00:17.421Z,8.38
2022-11-16T07:02:45.907Z,8.39
2022-11-16T07:05:16.401Z,8.51
2022-11-16T07:07:45.380Z,8.48
2022-11-16T07:10:13.278Z,8.40
2022-11-16T07:12:41.991Z,8.38
2022-11-16T07:15:10.045Z,8.45
2022-11-16T07:17:42.527Z,8.38
2022-11-16T07:20:12.107Z,8.42
2022-11-16T07:22:40.436Z,8.45
2022-11-16T07:25:11.429Z,8.45
2022-11-16T07:27:38.725Z,8.55
2022-11-16T07:30:07.035Z,8.56
2022-11-16T07:33:01.320Z,8.62
2022-11-16T07:35:48.918Z,8.64
2022-11-16T07:38:18.169Z,8.80
2022-11-16T07:40:47.643Z,8.92
2022-11-16T07:43:17.877Z,8.81
2022-11-16T07:46:45.823Z,9.00
2022-11-16T07:49:17.525Z,9.04
2022-11-16T07:51:52.560Z,9.10
2022-11-16T07:54:42.499Z,9.13
2022-11-16T07:57:09.854Z,9.15
2022-11-16T07:59:40.168Z,9.15
2022-11-16T08:02:09.048Z,9.08
2022-11-16T08:04:38.899Z,9.26
2022-11-16T08:07:06.461Z,9.39
2022-11-16T08:09:39.567Z,9.45
2022-11-16T08:12:09.302Z,9.46
2022-11-16T08:14:36.827Z,9.56
2022-11-16T08:17:05.167Z,9.46
2022-11-16T08:19:32.784Z,9.49
2022-11-16T08:22:01.411Z,9.42
2022-11-16T08:24:31.252Z,9.46
2022-11-16T08:26:59.116Z,9.55
2022-11-16T08:29:27.174Z,9.64
2022-11-16T08:31:57.021Z,9.39
2022-11-16T08:34:24.561Z,9.11
2022-11-16T08:36:56.715Z,9.23
2022-11-16T08:39:30.532Z,9.36
2022-11-16T08:41:58.933Z,9.22
2022-11-16T08:44:26.281Z,9.41
2022-11-16T08:46:55.828Z,9.44
2022-11-16T08:49:32.675Z,9.42
2022-11-16T08:52:00.342Z,9.49
2022-11-16T08:54:29.673Z,9.43
2022-11-16T08:56:57.397Z,9.46
2022-11-16T08:59:24.708Z,9.50
2022-11-16T09:01:55.585Z,9.27
2022-11-16T09:04:23.441Z,9.39
2022-11-16T09:06:52.878Z,9.61
2022-11-16T09:09:20.394Z,9.85
2022-11-16T09:11:47.715Z,9.87
2022-11-16T09:14:14.886Z,9.89
2022-11-16T09:16:42.043Z,9.79
2022-11-16T09:19:10.795Z,9.65
2022-11-16T09:21:38.064Z,9.87
2022-11-16T09:24:05.583Z,9.87
2022-11-16T09:26:32.972Z,10.00
2022-11-16T09:29:03.112Z,9.97
2022-11-16T09:31:34.834Z,10.27
2022-11-16T09:34:02.931Z,10.29
2022-11-16T09:36:30.841Z,10.44
2022-11-16T09:42:01.139Z,10.31
2022-11-16T09:45:04.869Z,10.46
2022-11-16T09:47:57.569Z,10.40
2022-11-16T09:50:52.827Z,10.05
2022-11-16T09:53:34.524Z,10.29
2022-11-16T09:56:22.352Z,10.40
2022-11-16T09:59:18.148Z,10.25
2022-11-16T10:01:57.256Z,10.20
2022-11-16T10:04:43.813Z,10.04
2022-11-16T10:07:20.463Z,10.08
2022-11-16T10:09:48.681Z,10.28
2022-11-16T10:12:28.635Z,10.45
2022-11-16T10:15:26.672Z,10.54
2022-11-16T10:18:13.254Z,10.70
2022-11-16T10:20:55.359Z,10.88
2022-11-16T10:23:45.424Z,10.80
2022-11-16T10:26:39.739Z,10.75
2022-11-16T10:29:33.654Z,10.69
2022-11-16T10:32:19.834Z,10.77
2022-11-16T10:35:16.750Z,10.70
2022-11-16T10:37:51.854Z,10.72
2022-11-16T10:40:29.397Z,10.80
2022-11-16T10:43:17.807Z,10.82
2022-11-16T10:46:03.572Z,10.73
2022-11-16T10:48:41.298Z,10.56
2022-11-16T10:51:10.739Z,10.50
2022-11-16T10:53:43.828Z,10.32
2022-11-16T10:56:42.633Z,10.43
2022-11-16T10:59:13.733Z,10.56
2022-11-16T11:01:49.987Z,10.48
2022-11-16T11:04:25.535Z,10.49
2022-11-16T11:06:58.391Z,10.62
2022-11-16T11:09:33.973Z,10.59
2022-11-16T11:12:38.234Z,10.23
2022-11-16T11:15:11.611Z,10.16
2022-11-16T11:17:42.111Z,10.02
2022-11-16T11:20:15.372Z,9.93
2022-11-16T11:23:00.141Z,9.97
2022-11-16T11:25:56.657Z,10.36
2022-11-16T11:28:34.041Z,10.24
2022-11-16T11:31:25.786Z,10.22
2022-11-16T11:34:24.848Z,10.32
2022-11-16T11:37:25.822Z,10.24
2022-11-16T11:40:27.634Z,10.20
2022-11-16T11:43:01.718Z,10.23
2022-11-16T11:45:39.586Z,10.25
2022-11-16T11:48:54.355Z,10.36
2022-11-16T11:51:36.867Z,10.25
2022-11-16T11:54:07.812Z,10.15
2022-11-16T11:56:35.360Z,10.10
2022-11-16T11:59:04.924Z,10.16
2022-11-16T12:02:23.020Z,10.32
2022-11-16T12:05:20.940Z,10.29
2022-11-16T12:08:10.527Z,10.33
2022-11-16T12:11:04.737Z,10.51
2022-11-16T12:13:38.549Z,10.51
2022-11-16T12:16:37.378Z,10.37
2022-11-16T12:19:41.689Z,10.45
2022-11-16T12:23:19.361Z,10.25
2022-11-16T12:26:28.592Z,10.02
2022-11-16T12:29:37.320Z,9.95
2022-11-16T12:32:26.301Z,9.89
2022-11-16T12:35:22.167Z,9.98
2022-11-16T12:38:26.387Z,9.98
2022-11-16T12:41:34.268Z,9.98
2022-11-16T12:44:15.659Z,9.90
2022-11-16T12:47:24.491Z,9.90
2022-11-16T12:50:16.167Z,9.81
2022-11-16T12:52:50.118Z,9.66
2022-11-16T12:55:38.213Z,9.67
2022-11-16T12:59:05.390Z,9.69
2022-11-16T13:01:59.125Z,9.54
2022-11-16T13:04:57.660Z,9.60
2022-11-16T13:08:02.097Z,9.54
2022-11-16T13:10:35.384Z,9.58
2022-11-16T13:16:00.767Z,9.57
2022-11-16T13:18:29.942Z,9.47
2022-11-16T13:21:32.747Z,9.43
2022-11-16T13:24:40.517Z,9.41
2022-11-16T13:27:26.267Z,9.43
2022-11-16T13:30:05.659Z,9.44
2022-11-16T13:32:32.837Z,9.49
2022-11-16T13:35:03.398Z,9.50
2022-11-16T13:37:39.699Z,9.48
2022-11-16T13:40:06.792Z,9.39
2022-11-16T13:42:58.662Z,9.37
2022-11-16T13:45:53.129Z,9.34
2022-11-16T13:48:35.372Z,9.33
2022-11-16T13:51:16.348Z,9.19
2022-11-16T13:56:51.621Z,9.20
2022-11-16T13:59:27.900Z,9.10
2022-11-16T14:02:03.850Z,8.91
2022-11-16T14:04:57.203Z,9.04
2022-11-16T14:07:50.005Z,8.88
2022-11-16T14:10:35.998Z,8.98
2022-11-16T14:13:27.525Z,8.95
2022-11-16T14:16:19.884Z,8.97
2022-11-16T14:18:52.253Z,8.87
2022-11-16T14:21:40.969Z,8.92
2022-11-16T14:24:25.283Z,8.78
2022-11-16T14:27:31.647Z,8.75
2022-11-16T14:30:27.034Z,8.74
2022-11-16T14:32:56.791Z,8.66
2022-11-16T14:35:39.816Z,8.65
2022-11-16T14:38:29.737Z,8.63
2022-11-16T14:40:59.885Z,8.61
2022-11-16T14:43:42.649Z,8.60
2022-11-16T14:46:29.906Z,8.33
2022-11-16T14:49:01.003Z,8.50
2022-11-16T14:51:37.339Z,8.48
2022-11-16T14:54:40.880Z,8.58
2022-11-16T14:57:18.211Z,8.44
2022-11-16T14:59:45.724Z,8.50
2022-11-16T15:02:23.619Z,8.33
2022-11-16T15:04:53.246Z,8.35
2022-11-16T15:07:23.760Z,8.33
2022-11-16T15:09:55.238Z,8.23
2022-11-16T15:12:44.505Z,8.38
2022-11-16T15:15:15.902Z,8.21
2022-11-16T15:17:46.871Z,8.24
2022-11-16T15:20:23.378Z,8.24
2022-11-16T15:22:57.935Z,8.25
2022-11-16T15:25:31.413Z,8.19
2022-11-16T15:28:27.360Z,8.10
2022-11-16T15:31:01.630Z,7.92
2022-11-16T15:33:39.281Z,8.08
2022-11-16T15:36:24.730Z,7.92
2022-11-16T15:38:55.756Z,7.84
2022-11-16T15:41:25.434Z,7.74
2022-11-16T15:44:13.448Z,7.71
2022-11-16T15:46:45.990Z,7.74
2022-11-16T15:49:30.453Z,7.82
2022-11-16T15:51:59.439Z,7.71
2022-11-16T15:54:52.616Z,7.60
2022-11-16T15:57:24.163Z,7.50
2022-11-16T15:59:54.909Z,7.47
2022-11-16T16:02:27.785Z,7.45
2022-11-16T16:04:55.166Z,7.58
2022-11-16T16:07:43.102Z,7.57
2022-11-16T16:10:19.637Z,7.47
2022-11-16T16:13:01.543Z,7.55
2022-11-16T16:15:36.263Z,7.57
2022-11-16T16:18:14.057Z,7.35
2022-11-16T16:20:49.075Z,7.31
2022-11-16T16:23:24.930Z,7.01
2022-11-16T16:25:52.196Z,7.26
2022-11-16T16:28:19.648Z,7.19
2022-11-16T16:30:50.467Z,7.13
2022-11-16T16:33:19.568Z,7.17
2022-11-16T16:35:49.928Z,7.31
2022-11-16T16:38:17.320Z,7.05
2022-11-16T16:40:44.733Z,7.11
2022-11-16T16:43:11.932Z,7.22
2022-11-16T16:45:43.550Z,7.10
2022-11-16T16:48:12.742Z,7.22
2022-11-16T16:50:40.069Z,7.14
2022-11-16T16:53:10.724Z,6.96
2022-11-16T16:55:37.983Z,7.03
2022-11-16T16:58:05.779Z,7.12
2022-11-16T17:00:33.130Z,7.27
2022-11-16T17:03:00.348Z,7.15
2022-11-16T17:05:27.716Z,7.08
2022-11-16T17:07:56.217Z,7.14
2022-11-16T17:10:23.640Z,7.05
2022-11-16T17:12:54.308Z,7.10
2022-11-16T17:15:22.303Z,6.97
2022-11-16T17:17:49.582Z,7.08
2022-11-16T17:20:17.374Z,6.96
2022-11-16T17:22:45.240Z,6.97
2022-11-16T17:25:12.719Z,6.90
2022-11-16T17:27:40.045Z,7.01
2022-11-16T17:30:08.409Z,7.09
2022-11-16T17:32:35.798Z,6.84
2022-11-16T17:35:03.329Z,6.67
2022-11-16T17:37:30.701Z,6.60
2022-11-16T17:39:58.210Z,6.64
2022-11-16T17:42:25.577Z,6.60
2022-11-16T17:44:53.991Z,6.58
2022-11-16T17:47:21.294Z,6.58
2022-11-16T17:49:48.505Z,6.70
2022-11-16T17:52:15.740Z,6.70
2022-11-16T17:54:43.129Z,6.55
2022-11-16T17:57:10.527Z,6.46
2022-11-16T17:59:38.010Z,6.61
2022-11-16T18:02:05.395Z,6.52
2022-11-16T18:04:32.799Z,6.54
2022-11-16T18:07:01.212Z,6.52
2022-11-16T18:09:28.941Z,6.30
2022-11-16T18:11:56.439Z,6.27
2022-11-16T18:14:23.765Z,6.32
2022-11-16T18:16:51.159Z,6.42
2022-11-16T18:19:19.873Z,6.58
2022-11-16T18:21:48.834Z,6.60
2022-11-16T18:24:16.355Z,6.45
2022-11-16T18:26:44.045Z,6.13
2022-11-16T18:29:16.135Z,6.35
2022-11-16T18:31:43.793Z,6.30
2022-11-16T18:34:15.377Z,6.26
2022-11-16T18:36:42.799Z,6.34
2022-11-16T18:39:10.087Z,6.26
2022-11-16T18:41:43.246Z,6.39
2022-11-16T18:44:13.647Z,6.52
2022-11-16T18:46:42.746Z,6.27
2022-11-16T18:49:10.180Z,6.36
2022-11-16T18:51:37.483Z,6.43
2022-11-16T18:54:04.981Z,6.36
2022-11-16T18:56:32.328Z,6.20
2022-11-16T18:58:59.734Z,6.12
2022-11-16T19:01:27.944Z,5.93
2022-11-16T19:03:56.365Z,5.90
2022-11-16T19:06:24.242Z,6.14
2022-11-16T19:08:59.590Z,6.12
2022-11-16T19:11:28.683Z,6.08
2022-11-16T19:14:04.404Z,6.08
2022-11-16T19:16:32.030Z,6.15
2022-11-16T19:18:59.695Z,6.28
2022-11-16T19:21:27.330Z,6.32
2022-11-16T19:23:56.654Z,6.12
2022-11-16T19:26:27.492Z,5.95
2022-11-16T19:28:54.907Z,6.02
2022-11-16T19:31:28.820Z,6.20
2022-11-16T19:34:05.797Z,5.95
2022-11-16T19:36:35.848Z,6.08
2022-11-16T19:39:05.255Z,6.15
2022-11-16T19:41:32.536Z,6.19
2022-11-16T19:44:01.808Z,6.11
2022-11-16T19:46:32.925Z,5.98
2022-11-16T19:49:00.562Z,6.02
2022-11-16T19:51:33.786Z,6.08
2022-11-16T19:54:02.759Z,5.97
2022-11-16T19:56:30.589Z,6.21
2022-11-16T19:58:58.344Z,6.23
2022-11-16T20:01:29.203Z,6.00
2022-11-16T20:04:00.140Z,6.01
2022-11-16T20:06:33.266Z,5.98
2022-11-16T20:09:08.865Z,5.93
2022-11-16T20:11:40.425Z,6.01
2022-11-16T20:14:11.987Z,5.92
2022-11-16T20:16:42.490Z,5.85
2022-11-16T20:19:10.968Z,5.88
2022-11-16T20:21:43.012Z,6.04
2022-11-16T20:24:15.441Z,6.05
2022-11-16T20:26:47.275Z,6.10
2022-11-16T20:29:16.912Z,5.92
2022-11-16T20:31:45.571Z,5.97
2022-11-16T20:34:16.404Z,6.11
2022-11-16T20:36:45.828Z,5.98
2022-11-16T20:39:16.575Z,5.99
2022-11-16T20:41:44.163Z,5.99
2022-11-16T20:44:27.042Z,5.93
2022-11-16T20:46:54.479Z,5.99
2022-11-16T20:49:21.748Z,5.91
2022-11-16T20:51:50.457Z,5.87
2022-11-16T20:54:17.839Z,5.96
2022-11-16T20:56:45.246Z,6.10
2022-11-16T20:59:12.833Z,5.90
2022-11-16T21:01:41.681Z,5.68
2022-11-16T21:04:10.921Z,5.72
2022-11-16T21:06:38.246Z,5.69
2022-11-16T21:09:05.550Z,5.69
2022-11-16T21:11:52.105Z,5.85
2022-11-16T21:14:20.513Z,5.79
2022-11-16T21:16:47.970Z,5.82
2022-11-16T21:19:16.299Z,5.83
2022-11-16T21:21:43.627Z,5.61
2022-11-16T21:24:11.448Z,5.62
2022-11-16T21:26:39.011Z,5.69
2022-11-16T21:29:06.809Z,5.65
2022-11-16T21:31:36.715Z,5.69
2022-11-16T21:34:05.911Z,5.62
2022-11-16T21:36:34.072Z,5.63
2022-11-16T21:39:01.461Z,5.47
2022-11-16T21:41:29.113Z,5.52
2022-11-16T21:43:56.881Z,5.76
2022-11-16T21:46:26.713Z,5.60
2022-11-16T21:48:56.600Z,5.72
2022-11-16T21:51:27.329Z,5.84
2022-11-16T21:53:55.536Z,6.10
2022-11-16T21:56:26.386Z,5.92
2022-11-16T21:58:54.674Z,5.88
2022-11-16T22:01:23.761Z,6.04
2022-11-16T22:04:11.551Z,5.78
2022-11-16T22:06:57.529Z,5.71
2022-11-16T22:09:24.806Z,5.65
2022-11-16T22:11:52.104Z,5.45
2022-11-16T22:14:19.362Z,5.33
2022-11-16T22:16:46.630Z,5.26
2022-11-16T22:19:13.860Z,4.95
2022-11-16T22:21:41.071Z,5.06
2022-11-16T22:24:08.665Z,5.10
2022-11-16T22:26:38.073Z,5.14
2022-11-16T22:29:05.348Z,5.16
2022-11-16T22:31:33.084Z,5.16
2022-11-16T22:34:00.312Z,4.88
2022-11-16T22:36:27.577Z,5.15
2022-11-16T22:38:57.248Z,5.26
2022-11-16T22:41:25.060Z,5.30
2022-11-16T22:43:52.329Z,5.17
2022-11-16T22:46:19.639Z,5.26
2022-11-16T22:48:47.986Z,5.06
2022-11-16T22:51:30.373Z,4.95
2022-11-16T22:54:04.408Z,4.84
2022-11-16T22:56:33.531Z,4.88
2022-11-16T22:59:02.462Z,4.83
2022-11-16T23:01:29.776Z,4.85
2022-11-16T23:03:57.131Z,4.72
2022-11-16T23:06:24.847Z,4.74
2022-11-16T23:08:52.131Z,4.56
2022-11-16T23:11:43.000Z,4.58
2022-11-16T23:14:34.086Z,4.60
2022-11-16T23:17:02.772Z,4.60
2022-11-16T23:19:48.774Z,4.58
2022-11-16T23:22:38.260Z,4.62
2022-11-16T23:25:28.384Z,4.51
2022-11-16T23:28:16.391Z,4.45
2022-11-16T23:30:43.724Z,4.43
2022-11-16T23:33:11.737Z,4.54
2022-11-16T23:35:39.206Z,4.37
2022-11-16T23:38:07.858Z,4.14
2022-11-16T23:40:40.020Z,4.05
2022-11-16T23:43:28.979Z,4.00
2022-11-16T23:45:56.422Z,4.13
2022-11-16T23:48:23.709Z,4.13
2022-11-16T23:50:50.995Z,4.01
2022-11-16T23:53:18.205Z,3.91
2022-11-16T23:55:45.432Z,4.14
2022-11-16T23:58:15.220Z,4.11
